Time;durP1;ratioP1;P1;durP2;ratioP2;P2;SDS_P1;SDS_P2;PMS_P1;PMS_P2;Temp;Humidity;BMP_temperature;BMP_pressure;BME280_temperature;BME280_humidity;BME280_pressure;Samples;Min_cycle;Max_cycle;Signal;HPM_P1;HPM_P2
2020/12/27 00:04:35;;;;;;;5.07;2.80;;;;;;;0.50;100.00;97988.55;3673752;80;43454;-19
2020/12/27 00:09:42;;;;;;;5.50;2.80;;;;;;;0.49;100.00;97980.69;3672641;80;43444;-19
2020/12/27 00:14:48;;;;;;;4.63;2.97;;;;;;;0.40;100.00;97953.06;3768634;78;44106;-19
2020/12/27 00:19:54;;;;;;;5.80;2.90;;;;;;;0.45;100.00;97948.27;3772222;78;43701;-19
2020/12/27 00:25:00;;;;;;;6.37;3.30;;;;;;;0.45;100.00;97931.91;3769112;77;43980;-19
2020/12/27 00:30:08;;;;;;;5.77;3.23;;;;;;;0.39;100.00;97916.42;3770038;78;44120;-19
2020/12/27 00:35:13;;;;;;;5.00;3.40;;;;;;;0.37;100.00;97912.20;3769590;78;44047;-19
2020/12/27 00:40:19;;;;;;;5.10;3.30;;;;;;;0.37;100.00;97910.88;3694804;80;43368;-19
2020/12/27 00:45:25;;;;;;;5.07;3.20;;;;;;;0.44;100.00;97898.41;3771439;77;44113;-19
2020/12/27 00:50:31;;;;;;;4.60;3.40;;;;;;;0.39;100.00;97881.14;3765197;78;43330;-19
2020/12/27 00:55:36;;;;;;;7.83;3.43;;;;;;;0.39;100.00;97866.56;3693869;79;43721;-19
2020/12/27 01:00:42;;;;;;;6.03;3.20;;;;;;;0.35;100.00;97858.00;3765829;77;44594;-19
2020/12/27 01:05:49;;;;;;;5.93;3.30;;;;;;;0.45;100.00;97832.98;3696944;79;43296;-19
2020/12/27 01:10:56;;;;;;;6.47;3.47;;;;;;;0.43;100.00;97833.11;3765345;77;43243;-19
2020/12/27 01:16:03;;;;;;;5.77;3.27;;;;;;;0.38;100.00;97810.55;3774092;78;44036;-19
2020/12/27 01:21:08;;;;;;;5.63;3.43;;;;;;;0.46;100.00;97808.17;3699517;79;45188;-19
2020/12/27 01:26:15;;;;;;;6.77;3.53;;;;;;;0.44;100.00;97803.46;3771658;78;44105;-19
2020/12/27 01:31:22;;;;;;;6.63;3.80;;;;;;;0.43;100.00;97796.01;3766988;77;43670;-19
2020/12/27 01:36:30;;;;;;;7.17;3.90;;;;;;;0.42;100.00;97768.27;3688783;80;43343;-19
2020/12/27 01:41:37;;;;;;;6.30;3.57;;;;;;;0.38;100.00;97744.31;3757856;78;44019;-19
2020/12/27 01:46:46;;;;;;;6.90;4.27;;;;;;;0.39;100.00;97730.11;3697714;80;44071;-19
2020/12/27 01:51:53;;;;;;;6.67;4.10;;;;;;;0.38;100.00;97715.16;3769177;77;26425;-19
2020/12/27 01:57:03;;;;;;;6.57;4.57;;;;;;;0.42;100.00;97701.56;3693437;79;26835;-19
2020/12/27 02:02:12;;;;;;;7.77;4.70;;;;;;;0.39;100.00;97687.70;3772173;77;26502;-19
2020/12/27 02:07:20;;;;;;;8.27;4.70;;;;;;;0.32;100.00;97680.70;3692595;80;26908;-19
2020/12/27 02:12:28;;;;;;;6.70;4.50;;;;;;;0.27;100.00;97673.56;3725476;78;26417;-19
2020/12/27 02:17:34;;;;;;;10.63;4.77;;;;;;;0.25;100.00;97672.83;3725778;78;44425;-19
2020/12/27 02:22:44;;;;;;;9.57;5.30;;;;;;;0.15;100.00;97662.92;3650189;81;26377;-19
2020/12/27 02:27:58;;;;;;;6.07;3.90;;;;;;;0.14;100.00;97647.16;3734332;79;26839;-19
2020/12/27 02:33:04;;;;;;;7.07;4.40;;;;;;;0.08;100.00;97642.30;3650483;80;43682;-19
2020/12/27 02:38:10;;;;;;;7.83;4.70;;;;;;;0.06;100.00;97621.73;3732608;79;44181;-19
2020/12/27 02:43:18;;;;;;;9.70;5.10;;;;;;;0.08;100.00;97621.12;3730216;79;44014;-18
2020/12/27 02:48:25;;;;;;;10.03;5.17;;;;;;;0.02;100.00;97607.86;3729076;79;26860;-19
2020/12/27 02:53:33;;;;;;;8.73;5.23;;;;;;;-0.04;100.00;97582.68;3644445;80;26866;-18
2020/12/27 02:58:39;;;;;;;8.23;4.87;;;;;;;-0.01;100.00;97567.06;3730072;79;43684;-19
2020/12/27 03:03:46;;;;;;;7.90;4.90;;;;;;;-0.05;100.00;97569.57;3632054;81;43671;-19
2020/12/27 03:08:55;;;;;;;8.00;5.23;;;;;;;-0.03;100.00;97555.25;3577672;81;26468;-18
2020/12/27 03:14:15;;;;;;;7.53;5.00;;;;;;;-0.10;100.00;97536.83;3763579;78;26365;-19
2020/12/27 03:19:24;;;;;;;8.07;4.70;;;;;;;-0.16;100.00;97519.60;3688443;78;26382;-19
2020/12/27 03:24:34;;;;;;;7.03;4.53;;;;;;;-0.18;100.00;97524.16;3764131;78;26924;-19
2020/12/27 03:29:40;;;;;;;7.97;5.00;;;;;;;-0.18;100.00;97508.77;3698516;79;43720;-19
2020/12/27 03:34:47;;;;;;;6.77;4.40;;;;;;;-0.19;100.00;97493.35;3769579;78;43722;-19
2020/12/27 03:39:53;;;;;;;7.63;4.50;;;;;;;-0.24;100.00;97490.23;3770470;77;43455;-19
2020/12/27 03:45:00;;;;;;;8.43;4.43;;;;;;;-0.24;100.00;97479.64;3757999;78;26426;-18
2020/12/27 03:50:17;;;;;;;9.50;4.50;;;;;;;-0.30;100.00;97468.67;3673730;80;26462;-18
2020/12/27 03:55:28;;;;;;;7.97;4.67;;;;;;;-0.21;100.00;97461.35;3768678;78;26364;-17
2020/12/27 04:00:38;;;;;;;7.20;4.13;;;;;;;-0.23;100.00;97448.70;3766665;78;26910;-30
2020/12/27 04:05:46;;;;;;;5.43;3.83;;;;;;;-0.28;100.00;97438.94;3690240;80;26451;-17
2020/12/27 04:10:54;;;;;;;7.73;4.17;;;;;;;-0.30;100.00;97436.92;3762583;77;44028;-17
2020/12/27 04:16:03;;;;;;;7.27;4.20;;;;;;;-0.35;100.00;97426.19;3726331;78;43310;-17
2020/12/27 04:21:14;;;;;;;6.00;3.70;;;;;;;-0.37;100.00;97414.88;3730981;78;26823;-18
2020/12/27 04:26:22;;;;;;;6.63;4.20;;;;;;;-0.39;100.00;97398.27;3648611;80;26711;-18
2020/12/27 04:31:32;;;;;;;7.43;3.90;;;;;;;-0.42;100.00;97365.91;3735673;78;26329;-18
2020/12/27 04:36:42;;;;;;;8.10;4.10;;;;;;;-0.42;100.00;97362.80;3634738;81;26392;-18
2020/12/27 04:41:50;;;;;;;6.03;3.40;;;;;;;-0.37;100.00;97351.86;3726691;78;26715;-17
2020/12/27 04:46:59;;;;;;;6.57;3.20;;;;;;;-0.47;100.00;97339.81;3642221;81;26430;-18
2020/12/27 04:52:09;;;;;;;5.47;3.03;;;;;;;-0.47;100.00;97319.97;3727143;78;26274;-18
2020/12/27 04:57:32;;;;;;;4.57;2.77;;;;;;;-0.46;100.00;97300.49;3696348;79;26363;-18
2020/12/27 05:02:38;;;;;;;6.03;2.77;;;;;;;-0.47;100.00;97283.76;3644733;80;44046;-18
2020/12/27 05:07:45;;;;;;;4.60;3.20;;;;;;;-0.48;100.00;97282.09;3729055;78;43435;-18
2020/12/27 05:13:04;;;;;;;6.97;2.83;;;;;;;-0.52;100.00;97266.56;3701150;78;26483;-17
2020/12/27 05:18:12;;;;;;;6.77;2.97;;;;;;;-0.60;100.00;97244.70;3786982;78;44031;-17
2020/12/27 05:23:23;;;;;;;5.23;3.10;;;;;;;-0.53;100.00;97239.28;3781681;78;26675;-17
2020/12/27 05:28:32;;;;;;;5.63;3.30;;;;;;;-0.59;100.00;97242.88;3725038;78;26470;-18
2020/12/27 05:33:49;;;;;;;6.00;2.80;;;;;;;-0.56;100.00;97236.04;3667646;78;26440;-18
2020/12/27 05:39:15;;;;;;;4.87;2.90;;;;;;;-0.60;100.00;97225.33;3787531;77;26423;-18
2020/12/27 05:44:41;;;;;;;5.40;3.13;;;;;;;-0.69;100.00;97205.73;3716439;79;26404;-16
2020/12/27 05:49:47;;;;;;;5.00;2.97;;;;;;;-0.71;100.00;97189.16;3791091;77;43661;-17
2020/12/27 05:54:57;;;;;;;7.53;2.80;;;;;;;-0.68;100.00;97177.85;3725427;78;43978;-17
2020/12/27 06:00:06;;;;;;;5.10;3.07;;;;;;;-0.72;100.00;97178.22;3790529;78;26527;-17
2020/12/27 06:05:23;;;;;;;3.63;2.60;;;;;;;-0.70;100.00;97163.05;3728022;79;44448;-17
2020/12/27 06:10:32;;;;;;;4.60;2.57;;;;;;;-0.62;100.00;97158.84;3795647;77;44374;-16
2020/12/27 06:15:45;;;;;;;4.10;2.37;;;;;;;-0.63;100.00;97148.39;3760107;78;26464;-17
2020/12/27 06:21:10;;;;;;;5.20;2.37;;;;;;;-0.62;100.00;97141.64;3696781;78;26393;-18
2020/12/27 06:26:21;;;;;;;4.23;2.50;;;;;;;-0.64;100.00;97118.44;3768594;77;26747;-17
2020/12/27 06:31:46;;;;;;;4.63;2.60;;;;;;;-0.65;100.00;97106.67;3772827;77;27078;-18
2020/12/27 06:36:54;;;;;;;3.60;1.97;;;;;;;-0.69;100.00;97092.86;3763577;78;26457;-18
2020/12/27 06:42:10;;;;;;;3.70;2.13;;;;;;;-0.68;100.00;97089.25;3764005;78;26748;-18
2020/12/27 06:47:18;;;;;;;4.57;2.20;;;;;;;-0.68;100.00;97095.01;3678770;80;26909;-18
2020/12/27 06:52:28;;;;;;;3.47;2.07;;;;;;;-0.72;100.00;97071.94;3768175;77;26527;-18
2020/12/27 06:57:46;;;;;;;3.83;2.30;;;;;;;-0.74;100.00;97058.00;3763373;77;26445;-18
2020/12/27 07:03:10;;;;;;;4.23;2.00;;;;;;;-0.72;100.00;97036.23;3698204;79;26459;-19
2020/12/27 07:08:18;;;;;;;4.93;2.53;;;;;;;-0.72;99.86;97024.84;3769007;77;43705;-19
2020/12/27 07:13:24;;;;;;;3.20;1.97;;;;;;;-0.68;99.15;97018.31;3739595;78;43173;-19
2020/12/27 07:18:30;;;;;;;3.90;2.17;;;;;;;-0.62;98.02;97012.53;3728488;79;44083;-19
2020/12/27 07:23:38;;;;;;;4.33;2.50;;;;;;;-0.65;96.80;97006.17;3727808;78;43741;-19
2020/12/27 07:28:46;;;;;;;3.57;2.50;;;;;;;-0.63;97.87;96998.45;3728690;78;44022;-19
2020/12/27 07:33:52;;;;;;;3.77;2.43;;;;;;;-0.65;97.77;96992.95;3723652;78;43762;-19
2020/12/27 07:39:01;;;;;;;3.90;2.13;;;;;;;-0.67;96.57;96977.21;3643759;81;44456;-18
2020/12/27 07:44:11;;;;;;;4.03;2.27;;;;;;;-0.72;95.15;96957.41;3721272;78;43980;-18
2020/12/27 07:49:17;;;;;;;2.80;1.90;;;;;;;-0.70;94.77;96963.38;3723802;79;43702;-18
2020/12/27 07:54:24;;;;;;;4.57;2.10;;;;;;;-0.71;93.58;96957.77;3654791;80;44141;-18
2020/12/27 07:59:31;;;;;;;4.47;2.03;;;;;;;-0.72;92.05;96943.69;3724388;79;43675;-18
2020/12/27 08:04:39;;;;;;;4.97;2.30;;;;;;;-0.66;90.21;96946.30;3653234;80;44422;-18
2020/12/27 08:09:45;;;;;;;4.00;2.30;;;;;;;-0.59;89.19;96934.73;3738007;78;43696;-18
2020/12/27 08:14:52;;;;;;;4.33;2.57;;;;;;;-0.57;89.21;96932.80;3740816;78;43309;-18
2020/12/27 08:20:03;;;;;;;5.53;2.60;;;;;;;-0.60;86.68;96930.41;3721081;79;44015;-18
2020/12/27 08:25:13;;;;;;;4.20;2.37;;;;;;;-0.56;86.51;96916.80;3730756;79;44000;-18
2020/12/27 08:30:27;;;;;;;5.57;2.47;;;;;;;-0.54;85.81;96903.46;3685795;80;43453;-18
2020/12/27 08:35:37;;;;;;;4.43;2.77;;;;;;;-0.56;84.06;96900.09;3626909;79;43662;-17
2020/12/27 08:40:46;;;;;;;5.33;3.10;;;;;;;-0.52;84.66;96873.72;3722843;78;43469;-17
2020/12/27 08:45:57;;;;;;;4.63;3.20;;;;;;;-0.45;86.11;96857.70;3686929;80;43709;-17
2020/12/27 08:51:06;;;;;;;4.30;3.07;;;;;;;-0.50;83.30;96843.55;3637488;80;43688;-17
2020/12/27 08:56:13;;;;;;;4.83;3.43;;;;;;;-0.42;82.60;96841.58;3733141;78;44057;-17
2020/12/27 09:01:24;;;;;;;4.83;2.63;;;;;;;-0.43;83.76;96830.63;3721064;78;43089;-18
2020/12/27 09:06:31;;;;;;;7.50;2.97;;;;;;;-0.44;81.38;96819.70;3637342;81;43313;-18
2020/12/27 09:11:47;;;;;;;4.70;2.90;;;;;;;-0.32;81.64;96829.70;3727591;79;44013;-18
2020/12/27 09:16:53;;;;;;;4.40;2.90;;;;;;;-0.26;80.54;96832.30;3721109;79;43984;-18
2020/12/27 09:22:01;;;;;;;3.97;2.77;;;;;;;-0.20;79.43;96840.55;3792534;78;43495;-18
2020/12/27 09:27:08;;;;;;;3.47;2.30;;;;;;;-0.17;80.31;96813.81;3728196;78;44112;-18
2020/12/27 09:32:14;;;;;;;5.37;2.53;;;;;;;-0.14;78.87;96796.83;3795264;77;44051;-19
2020/12/27 09:37:23;;;;;;;3.13;2.13;;;;;;;-0.14;77.32;96766.89;3791323;78;43133;-19
2020/12/27 09:42:32;;;;;;;3.03;2.03;;;;;;;-0.09;75.18;96779.21;3725807;78;43718;-19
2020/12/27 09:47:38;;;;;;;3.63;2.07;;;;;;;-0.03;73.41;96788.77;3793131;78;43970;-19
2020/12/27 09:52:48;;;;;;;4.57;2.33;;;;;;;0.03;74.72;96766.22;3725528;79;44079;-19
2020/12/27 09:57:54;;;;;;;3.73;2.30;;;;;;;0.03;72.94;96763.56;3782638;77;43762;-19
2020/12/27 10:03:00;;;;;;;3.83;2.10;;;;;;;0.01;69.84;96744.33;3790289;77;44058;-19
2020/12/27 10:08:07;;;;;;;4.10;2.40;;;;;;;0.04;70.09;96740.59;3726484;78;43390;-18
2020/12/27 10:13:15;;;;;;;4.07;2.33;;;;;;;0.03;69.36;96729.15;3785596;78;44038;-19
2020/12/27 10:18:21;;;;;;;6.27;2.80;;;;;;;0.05;69.74;96714.47;3763264;78;43354;-18
2020/12/27 10:23:27;;;;;;;4.10;2.93;;;;;;;0.09;73.36;96707.91;3694565;80;44141;-19
2020/12/27 10:33:46;;;;;;;2.40;2.00;;;;;;;0.08;72.27;96683.73;3981684;73;30463;-18
2020/12/27 10:38:52;;;;;;;5.03;2.13;;;;;;;0.03;72.76;96670.08;3912773;73;43287;-18
2020/12/27 10:43:59;;;;;;;4.33;2.20;;;;;;;-0.01;71.27;96631.15;3935977;73;43462;-18
2020/12/27 10:49:05;;;;;;;3.73;2.30;;;;;;;-0.01;72.52;96617.91;3920133;73;44085;-18
2020/12/27 10:54:11;;;;;;;4.13;2.60;;;;;;;-0.04;71.01;96597.00;3895084;75;44185;-18
2020/12/27 10:59:18;;;;;;;2.93;2.20;;;;;;;-0.07;71.59;96569.02;3922487;75;44124;-18
2020/12/27 11:04:24;;;;;;;5.10;2.80;;;;;;;-0.09;71.46;96565.66;3946109;75;44223;-18
2020/12/27 11:09:30;;;;;;;3.93;2.27;;;;;;;-0.09;72.32;96550.25;3921398;73;43440;-18
2020/12/27 11:14:35;;;;;;;4.17;2.30;;;;;;;-0.13;72.89;96529.86;3915661;75;43460;-18
2020/12/27 11:19:41;;;;;;;3.90;2.33;;;;;;;-0.19;72.19;96528.61;3924722;75;44497;-18
2020/12/27 11:24:48;;;;;;;3.50;2.40;;;;;;;-0.14;75.90;96513.62;3919627;75;43061;-17
2020/12/27 11:29:55;;;;;;;4.73;2.43;;;;;;;-0.21;74.14;96486.07;3927095;73;44156;-17
2020/12/27 11:35:01;;;;;;;4.03;2.33;;;;;;;-0.22;75.16;96473.81;3875304;75;43710;-18
2020/12/27 11:40:07;;;;;;;3.60;2.37;;;;;;;-0.24;74.63;96460.73;3898919;73;44029;-17
2020/12/27 11:45:13;;;;;;;3.73;2.20;;;;;;;-0.23;76.16;96460.23;3911328;75;43716;-17
2020/12/27 11:50:19;;;;;;;3.70;2.17;;;;;;;-0.25;77.38;96445.84;3867117;75;42899;-18
2020/12/27 11:55:25;;;;;;;3.07;2.20;;;;;;;-0.27;76.91;96427.94;3916156;75;44029;-18
2020/12/27 12:00:32;;;;;;;3.70;2.27;;;;;;;-0.26;76.41;96396.53;3906638;74;44449;-18
2020/12/27 12:05:37;;;;;;;3.30;2.07;;;;;;;-0.21;77.68;96377.07;3885949;75;43355;-18
2020/12/27 12:10:44;;;;;;;5.97;2.63;;;;;;;-0.22;76.91;96365.32;3874704;74;43721;-18
2020/12/27 12:15:50;;;;;;;3.73;2.53;;;;;;;-0.23;75.63;96357.03;3896324;74;43302;-17
2020/12/27 12:20:56;;;;;;;5.00;2.37;;;;;;;-0.14;77.86;96344.25;3880187;75;44042;-17
2020/12/27 12:26:02;;;;;;;4.37;2.60;;;;;;;-0.06;79.60;96323.17;3899776;75;43663;-17
2020/12/27 12:31:12;;;;;;;3.47;2.20;;;;;;;0.00;78.63;96324.42;3894786;74;44691;-18
2020/12/27 12:36:20;;;;;;;3.17;2.30;;;;;;;0.08;79.55;96295.87;3920439;74;43424;-18
2020/12/27 12:41:26;;;;;;;3.60;2.17;;;;;;;0.03;78.45;96272.49;3910014;74;43737;-18
2020/12/27 12:46:32;;;;;;;2.10;1.70;;;;;;;0.12;81.50;96250.92;3957080;73;43456;-17
2020/12/27 12:51:38;;;;;;;3.13;2.10;;;;;;;0.12;79.55;96254.38;3912523;74;44652;-18
2020/12/27 12:56:45;;;;;;;3.37;2.10;;;;;;;0.20;83.58;96238.27;3918886;74;43299;-18
2020/12/27 13:01:52;;;;;;;2.47;1.93;;;;;;;0.16;81.67;96217.88;3933309;74;45429;-18
2020/12/27 13:06:58;;;;;;;3.03;2.10;;;;;;;0.12;81.02;96208.56;3921022;74;44437;-18
2020/12/27 13:12:04;;;;;;;3.83;2.00;;;;;;;0.17;81.04;96197.52;3929162;74;43334;-18
2020/12/27 13:17:09;;;;;;;2.70;1.90;;;;;;;0.15;80.48;96187.08;3919287;73;44065;-17
2020/12/27 13:22:15;;;;;;;2.47;1.83;;;;;;;0.08;77.16;96172.30;3931395;74;44078;-18
2020/12/27 13:27:21;;;;;;;2.90;1.77;;;;;;;0.11;77.19;96153.95;3935317;74;43473;-17
2020/12/27 13:32:27;;;;;;;2.90;1.83;;;;;;;0.18;78.92;96140.42;3932021;74;43464;-17
2020/12/27 13:37:33;;;;;;;2.43;1.90;;;;;;;0.15;77.77;96127.52;3951235;74;43377;-17
2020/12/27 13:42:39;;;;;;;3.07;2.00;;;;;;;0.16;75.80;96118.59;3935106;74;43319;-17
2020/12/27 13:47:44;;;;;;;3.10;2.00;;;;;;;0.14;75.92;96104.16;3939598;73;44097;-17
2020/12/27 13:52:50;;;;;;;4.00;1.70;;;;;;;0.22;78.74;96101.26;3929876;74;42880;-18
2020/12/27 13:57:56;;;;;;;2.97;1.90;;;;;;;0.19;74.89;96077.22;3925488;74;44138;-18
2020/12/27 14:03:02;;;;;;;2.10;1.80;;;;;;;0.27;76.86;96076.45;3939266;74;44506;-18
2020/12/27 14:08:07;;;;;;;2.80;1.93;;;;;;;0.28;75.13;96071.50;3926684;74;44048;-17
2020/12/27 14:13:16;;;;;;;2.63;1.70;;;;;;;0.24;73.92;96064.37;3920232;74;43718;-18
2020/12/27 14:18:20;;;;;;;1.90;1.70;;;;;;;0.23;74.18;96052.11;3905393;74;44515;-17
2020/12/27 14:23:26;;;;;;;2.53;1.70;;;;;;;0.27;74.04;96044.68;3920903;73;43413;-17
2020/12/27 14:28:32;;;;;;;3.03;1.80;;;;;;;0.30;72.87;96039.08;3927478;73;44490;-18
2020/12/27 14:33:40;;;;;;;2.53;1.60;;;;;;;0.34;73.80;96029.00;3915054;74;43073;-18
2020/12/27 14:38:46;;;;;;;3.70;1.67;;;;;;;0.37;71.21;96024.22;3868908;75;44467;-18
2020/12/27 14:43:52;;;;;;;2.17;1.80;;;;;;;0.40;71.25;96008.53;3878847;75;43345;-18
2020/12/27 14:48:57;;;;;;;3.53;1.97;;;;;;;0.33;69.32;95987.61;3880556;75;43312;-17
2020/12/27 14:54:03;;;;;;;2.40;1.97;;;;;;;0.36;70.49;95983.34;3874680;74;44038;-17
2020/12/27 14:59:10;;;;;;;2.77;1.90;;;;;;;0.39;69.55;95984.35;3891987;75;43401;-18
2020/12/27 15:04:16;;;;;;;2.00;1.60;;;;;;;0.32;69.92;95952.84;3893033;75;44007;-18
2020/12/27 15:09:22;;;;;;;3.30;1.70;;;;;;;0.32;68.53;95935.16;3895094;75;43737;-18
2020/12/27 15:14:28;;;;;;;3.27;1.70;;;;;;;0.35;70.15;95924.73;3892706;75;43311;-17
2020/12/27 15:19:34;;;;;;;3.63;1.63;;;;;;;0.37;72.33;95907.69;3918008;74;43380;-17
2020/12/27 15:24:40;;;;;;;2.00;1.50;;;;;;;0.36;69.99;95889.32;3878059;74;43395;-18
2020/12/27 15:29:46;;;;;;;2.30;1.70;;;;;;;0.40;71.94;95858.38;3894430;74;43664;-17
2020/12/27 15:34:52;;;;;;;2.47;1.80;;;;;;;0.45;71.57;95853.92;3886038;75;44132;-18
2020/12/27 15:39:58;;;;;;;2.23;1.70;;;;;;;0.49;73.70;95869.84;3880689;75;44041;-17
2020/12/27 15:45:05;;;;;;;1.90;1.50;;;;;;;0.52;75.25;95852.30;3866352;75;43327;-17
2020/12/27 15:50:11;;;;;;;1.70;1.40;;;;;;;0.55;75.20;95852.47;3917131;75;44366;-18
2020/12/27 15:55:17;;;;;;;2.37;1.70;;;;;;;0.57;75.41;95830.11;3905800;75;43172;-17
2020/12/27 16:00:23;;;;;;;3.80;2.30;;;;;;;0.56;77.40;95821.83;3888272;74;44053;-18
2020/12/27 16:05:29;;;;;;;2.43;1.80;;;;;;;0.61;77.99;95804.96;3867042;75;44069;-17
2020/12/27 16:10:34;;;;;;;1.70;1.30;;;;;;;0.58;77.66;95806.61;3893187;75;44843;-18
2020/12/27 16:15:42;;;;;;;2.07;1.73;;;;;;;0.67;78.46;95800.83;3892904;75;44081;-18
2020/12/27 16:20:48;;;;;;;2.20;1.70;;;;;;;0.70;79.10;95802.31;3897577;74;43376;-18
2020/12/27 16:25:55;;;;;;;3.30;2.17;;;;;;;0.70;78.61;95769.19;3873929;75;43097;-18
2020/12/27 16:31:01;;;;;;;2.40;1.63;;;;;;;0.69;76.87;95758.26;3873606;74;42929;-18
2020/12/27 16:36:14;;;;;;;2.60;1.70;;;;;;;0.75;78.54;95770.86;3918917;74;43327;-18
2020/12/27 16:41:22;;;;;;;2.23;1.40;;;;;;;0.75;77.69;95746.50;3917909;74;43717;-18
2020/12/27 16:46:28;;;;;;;2.10;1.30;;;;;;;0.76;76.03;95728.28;3940612;74;44035;-18
2020/12/27 16:51:35;;;;;;;2.33;1.47;;;;;;;0.79;73.09;95721.01;3939608;74;44491;-18
2020/12/27 16:56:41;;;;;;;1.47;1.10;;;;;;;0.82;72.46;95711.41;3810695;76;42746;-18
2020/12/27 17:01:51;;;;;;;3.23;1.30;;;;;;;0.89;70.07;95683.23;3808053;76;44723;-18
2020/12/27 17:06:58;;;;;;;1.57;1.10;;;;;;;0.84;68.46;95654.58;3850656;76;43016;-18
2020/12/27 17:12:04;;;;;;;2.00;1.20;;;;;;;0.95;67.92;95664.50;3835866;76;44091;-18
2020/12/27 17:17:10;;;;;;;2.00;1.30;;;;;;;0.97;66.61;95634.67;3820210;76;43510;-18
2020/12/27 17:22:17;;;;;;;2.10;1.37;;;;;;;1.04;66.54;95646.23;3808726;76;43362;-18
2020/12/27 17:27:24;;;;;;;1.60;1.20;;;;;;;0.98;66.40;95637.66;3813116;77;44029;-18
2020/12/27 17:32:30;;;;;;;1.93;1.30;;;;;;;1.00;63.86;95632.50;3964573;73;44068;-18
2020/12/27 17:37:37;;;;;;;1.67;1.20;;;;;;;0.95;60.67;95625.55;3927106;74;43285;-18
2020/12/27 17:42:43;;;;;;;2.07;1.30;;;;;;;0.94;60.81;95610.67;3885459;75;43388;-18
2020/12/27 17:47:52;;;;;;;2.10;1.40;;;;;;;0.91;60.51;95581.84;3890624;75;43153;-18
2020/12/27 17:52:57;;;;;;;2.97;1.43;;;;;;;0.94;60.01;95600.55;3872811;75;44120;-18
2020/12/27 17:58:04;;;;;;;3.03;1.70;;;;;;;0.84;59.72;95589.66;3885288;75;43979;-18
2020/12/27 18:03:10;;;;;;;3.43;2.20;;;;;;;0.84;59.21;95571.10;3893304;75;44446;-18
2020/12/27 18:08:17;;;;;;;2.40;1.90;;;;;;;0.87;59.42;95572.58;3900740;74;43690;-18
2020/12/27 18:13:24;;;;;;;1.57;1.00;;;;;;;0.91;57.51;95569.92;3884952;75;43440;-19
2020/12/27 18:18:33;;;;;;;1.20;1.03;;;;;;;0.97;56.01;95545.88;3881011;75;43299;-19
2020/12/27 18:23:38;;;;;;;1.87;1.10;;;;;;;1.13;53.78;95533.86;3920714;75;43709;-19
2020/12/27 18:28:45;;;;;;;1.53;1.27;;;;;;;1.17;54.19;95539.15;3845483;75;43014;-19
2020/12/27 18:33:51;;;;;;;2.43;1.37;;;;;;;1.21;53.86;95546.25;3741277;78;44468;-19
2020/12/27 18:38:57;;;;;;;2.33;1.20;;;;;;;1.17;54.11;95547.10;3729236;78;43368;-18
2020/12/27 18:44:03;;;;;;;2.47;1.20;;;;;;;1.18;53.90;95531.52;3722979;77;42951;-19
2020/12/27 18:49:12;;;;;;;1.40;0.97;;;;;;;1.20;53.57;95510.97;3723645;78;43004;-19
2020/12/27 18:54:19;;;;;;;1.40;1.10;;;;;;;1.20;53.16;95513.62;3714376;79;43048;-19
2020/12/27 18:59:26;;;;;;;1.53;1.23;;;;;;;1.22;52.95;95496.20;3733303;78;43110;-19
2020/12/27 19:04:33;;;;;;;1.50;1.10;;;;;;;1.17;53.47;95487.44;3707074;78;44050;-19
2020/12/27 19:09:40;;;;;;;2.13;1.17;;;;;;;1.18;52.69;95476.33;3717367;78;43711;-19
2020/12/27 19:14:47;;;;;;;1.80;1.30;;;;;;;1.14;51.38;95460.46;3733669;78;43436;-19
2020/12/27 19:19:55;;;;;;;1.90;1.30;;;;;;;1.14;52.25;95462.59;3728136;77;43295;-19
2020/12/27 19:25:01;;;;;;;1.30;1.13;;;;;;;1.16;53.48;95458.47;3712733;78;44626;-19
2020/12/27 19:30:07;;;;;;;2.10;1.40;;;;;;;1.15;53.50;95449.67;3736286;77;44006;-18
2020/12/27 19:35:13;;;;;;;1.40;1.10;;;;;;;1.14;53.92;95424.16;3740992;79;44702;-17
2020/12/27 19:40:18;;;;;;;1.67;1.10;;;;;;;1.17;53.08;95412.39;3711088;79;43697;-17
2020/12/27 19:45:25;;;;;;;1.90;1.50;;;;;;;1.21;53.83;95413.19;3708650;78;44412;-17
2020/12/27 19:50:30;;;;;;;2.73;1.50;;;;;;;1.16;55.23;95391.67;3714852;78;43287;-18
2020/12/27 19:55:38;;;;;;;2.10;1.30;;;;;;;1.04;55.83;95381.16;3702442;78;44034;-17
2020/12/27 20:00:44;;;;;;;2.50;1.30;;;;;;;0.99;57.16;95386.98;3706501;79;43694;-17
2020/12/27 20:05:50;;;;;;;1.93;1.40;;;;;;;1.00;56.92;95392.61;3756370;78;43991;-18
2020/12/27 20:10:56;;;;;;;2.67;1.60;;;;;;;1.01;55.35;95390.78;3725635;79;43753;-18
2020/12/27 20:16:04;;;;;;;2.33;1.50;;;;;;;0.97;55.75;95401.42;3736948;77;44177;-19
2020/12/27 20:21:10;;;;;;;2.10;1.40;;;;;;;0.88;55.58;95373.63;3747481;79;44464;-19
2020/12/27 20:26:17;;;;;;;2.07;1.47;;;;;;;0.81;56.43;95374.02;3721259;78;45412;-18
2020/12/27 20:31:23;;;;;;;2.57;1.67;;;;;;;0.81;57.36;95375.34;3718532;79;43653;-18
2020/12/27 20:36:31;;;;;;;2.60;1.60;;;;;;;0.80;57.25;95358.31;3683579;78;44011;-18
2020/12/27 20:41:42;;;;;;;2.13;1.40;;;;;;;0.80;56.92;95347.20;3672509;79;43262;-19
2020/12/27 20:46:52;;;;;;;2.23;1.40;;;;;;;0.82;59.29;95341.23;3651625;79;43734;-18
2020/12/27 20:51:58;;;;;;;2.20;1.40;;;;;;;0.74;56.41;95337.32;3681714;79;43346;-18
2020/12/27 20:57:05;;;;;;;2.17;1.40;;;;;;;0.78;58.42;95328.00;3667090;79;44043;-18
2020/12/27 21:02:10;;;;;;;2.07;1.60;;;;;;;0.78;58.86;95333.81;3691821;79;44118;-16
2020/12/27 21:07:16;;;;;;;2.73;1.30;;;;;;;0.79;58.18;95333.62;3667485;79;43337;-16
2020/12/27 21:12:22;;;;;;;1.83;1.30;;;;;;;0.78;56.32;95318.72;3670994;79;44050;-17
2020/12/27 21:17:28;;;;;;;2.37;1.57;;;;;;;0.85;55.92;95326.30;3670887;79;43216;-17
2020/12/27 21:22:34;;;;;;;1.30;1.20;;;;;;;0.86;57.20;95318.69;3709639;78;44718;-17
2020/12/27 21:27:42;;;;;;;2.53;1.43;;;;;;;0.85;56.37;95309.08;3707141;78;43405;-17
2020/12/27 21:32:48;;;;;;;2.07;1.20;;;;;;;0.87;55.63;95322.14;3697529;79;43464;-17
2020/12/27 21:37:57;;;;;;;2.77;1.50;;;;;;;0.85;56.50;95314.38;3679350;79;43979;-17
2020/12/27 21:43:03;;;;;;;2.60;1.40;;;;;;;0.74;57.61;95329.37;3676734;79;43365;-17
2020/12/27 21:48:09;;;;;;;2.77;1.43;;;;;;;0.67;57.25;95337.68;3713381;79;43727;-18
2020/12/27 21:53:15;;;;;;;2.57;1.70;;;;;;;0.68;58.33;95325.60;3708844;79;44134;-17
2020/12/27 21:58:22;;;;;;;2.23;1.40;;;;;;;0.66;59.47;95330.73;3688429;79;43325;-18
2020/12/27 22:03:28;;;;;;;3.03;1.60;;;;;;;0.64;61.10;95323.48;3694952;79;43471;-17
2020/12/27 22:08:37;;;;;;;2.37;1.77;;;;;;;0.63;62.30;95319.19;3696546;79;43771;-17
2020/12/27 22:13:42;;;;;;;2.10;1.50;;;;;;;0.57;61.72;95312.77;3692093;78;44102;-17
2020/12/27 22:18:49;;;;;;;3.77;1.80;;;;;;;0.53;62.87;95295.05;3696262;79;43701;-17
2020/12/27 22:23:55;;;;;;;2.47;1.57;;;;;;;0.50;62.30;95280.86;3671252;79;43668;-17
2020/12/27 22:29:02;;;;;;;2.37;1.67;;;;;;;0.43;62.73;95285.19;3703010;78;43604;-17
2020/12/27 22:34:08;;;;;;;2.97;2.07;;;;;;;0.33;62.45;95281.95;3696953;79;42581;-18
2020/12/27 22:39:14;;;;;;;3.20;1.60;;;;;;;0.32;65.67;95281.63;3704226;78;44385;-17
2020/12/27 22:44:20;;;;;;;2.83;1.80;;;;;;;0.28;66.29;95263.95;3692128;79;43362;-17
2020/12/27 22:49:27;;;;;;;2.60;2.00;;;;;;;0.26;67.40;95278.69;3687598;79;44002;-17
2020/12/27 22:54:32;;;;;;;2.80;1.80;;;;;;;0.21;66.74;95269.11;3683208;79;43715;-17
2020/12/27 22:59:39;;;;;;;2.67;1.63;;;;;;;0.22;68.08;95269.44;3701640;79;44172;-17
2020/12/27 23:04:45;;;;;;;4.20;1.97;;;;;;;0.18;67.90;95260.19;3694755;79;44050;-17
2020/12/27 23:09:50;;;;;;;3.37;2.00;;;;;;;0.17;69.75;95266.51;3685769;79;44050;-17
2020/12/27 23:14:57;;;;;;;2.30;1.73;;;;;;;0.19;70.37;95265.81;3698135;79;44439;-17
2020/12/27 23:20:07;;;;;;;3.90;2.33;;;;;;;0.24;69.90;95258.66;3696863;79;43485;-17
2020/12/27 23:25:14;;;;;;;4.53;2.17;;;;;;;0.34;68.75;95277.82;3684354;79;44059;-17
2020/12/27 23:30:24;;;;;;;3.10;2.13;;;;;;;0.44;68.13;95249.77;3710263;79;43661;-17
2020/12/27 23:35:31;;;;;;;4.43;2.27;;;;;;;0.45;68.25;95247.45;3670320;79;44055;-17
2020/12/27 23:40:36;;;;;;;3.20;2.20;;;;;;;0.50;68.70;95233.19;3658255;80;43659;-17
2020/12/27 23:45:42;;;;;;;3.93;2.27;;;;;;;0.45;69.33;95250.94;3653065;80;43424;-17
2020/12/27 23:50:48;;;;;;;4.30;2.20;;;;;;;0.42;69.81;95244.66;3680802;80;43653;-17
2020/12/27 23:55:54;;;;;;;4.63;2.20;;;;;;;0.40;71.37;95247.98;3667696;78;43701;-18
